Kingsville, Ohio
Current Conditions -  °F | °C
As of 10:53 PM on Saturday 22 Nov 2014 (Local Time) from KHZY Reporting Station
Overcast Overcast  
Wind Chill: 38°   Ceiling: 4300
Heat Index: 44°   Visibility: 10mi
Dew Point: 33°   Wind: 12mph
Humidity: 65%   Direction: 200°SSW
Pressure: 30.03"   Gusts: NA
Location:  41.89°N, 80.68°W
Report Text: KHZY 230353Z AUTO 20010KT 10SM OVC043 07/01 A3003 RMK AO2 SLP176 T00670006
Loading
Personal Weather Stations






























Interactive Weather Map New forecast layout! Learn more

10-Day Weather Forecast

Advertisements
Track Severe Weather on mobile